Terminal Aerodrome Forecast
Issued by NWS Sterling, VA

Current Version | Previous Version | Graphics & Text | Print | Product List | Glossary On
Versions: 1 2 3 4 5 6 7 8 9 10 11 12 13 14 15 16 17 18 19 20
681
FTUS41 KLWX 291739
TAFDCA
TAF
KDCA 291739Z 2918/3018 17007KT P6SM BKN120
     FM292200 15006KT P6SM -SHRA SCT030 OVC080
     FM300300 VRB03KT 4SM SHRA OVC020
     FM300700 VRB03KT P6SM OVC012=

USA.gov is the U.S. government's official web portal to all federal, state and local government web resources and services.